createdAt,value
2019-05-15T00:01:08.516Z,100798.38
2019-05-15T00:06:12.859Z,100803.91
2019-05-15T00:11:19.188Z,100803.94
2019-05-15T00:16:24.734Z,100793.80
2019-05-15T00:21:30.094Z,100795.61
2019-05-15T00:26:35.368Z,100777.11
2019-05-15T00:31:40.564Z,100797.52
2019-05-15T00:36:45.899Z,100791.80
2019-05-15T00:41:54.599Z,100776.22
2019-05-15T00:46:58.411Z,100780.91
2019-05-15T00:52:03.904Z,100774.34
2019-05-15T00:57:09.250Z,100757.05
2019-05-15T01:02:14.702Z,100768.34
2019-05-15T01:07:20.083Z,100754.72
2019-05-15T01:12:25.491Z,100750.84
2019-05-15T01:17:30.941Z,100737.39
2019-05-15T01:22:36.219Z,100725.99
2019-05-15T01:27:41.570Z,100724.52
2019-05-15T01:32:48.573Z,100731.64
2019-05-15T01:37:53.999Z,100731.54
2019-05-15T01:42:59.390Z,100726.81
2019-05-15T01:48:04.636Z,100722.05
2019-05-15T01:53:09.869Z,100708.02
2019-05-15T01:58:23.912Z,100709.89
2019-05-15T02:03:33.372Z,100708.59
2019-05-15T02:08:49.694Z,100710.88
2019-05-15T02:13:56.054Z,100716.83
2019-05-15T02:19:01.928Z,100700.97
2019-05-15T02:24:12.426Z,100689.51
2019-05-15T02:29:22.604Z,100685.35
2019-05-15T02:34:30.164Z,100685.48
2019-05-15T02:39:39.362Z,100680.71
2019-05-15T02:44:58.679Z,100669.28
2019-05-15T02:50:11.155Z,100668.45
2019-05-15T02:55:23.618Z,100664.95
2019-05-15T03:00:42.478Z,100657.08
2019-05-15T03:05:41.131Z,100657.49
2019-05-15T03:10:49.586Z,100628.09
2019-05-15T03:15:59.958Z,100656.98
2019-05-15T03:21:09.779Z,100652.58
2019-05-15T03:26:23.167Z,100661.91
2019-05-15T03:31:52.750Z,100653.14
2019-05-15T03:36:47.601Z,100645.59
2019-05-15T03:41:58.943Z,100661.77
2019-05-15T03:47:09.022Z,100657.83
2019-05-15T03:52:15.249Z,100662.37
2019-05-15T03:57:30.555Z,100653.06
2019-05-15T04:02:42.495Z,100650.90
2019-05-15T04:07:52.828Z,100661.53
2019-05-15T04:13:09.069Z,100659.31
2019-05-15T04:18:21.939Z,100657.09
2019-05-15T04:23:32.415Z,100657.06
2019-05-15T04:28:41.611Z,100668.67
2019-05-15T04:33:52.794Z,100657.15
2019-05-15T04:39:04.164Z,100664.67
2019-05-15T04:44:19.112Z,100661.98
2019-05-15T04:49:28.798Z,100673.56
2019-05-15T04:54:42.288Z,100673.59
2019-05-15T04:59:58.708Z,100682.41
2019-05-15T05:05:09.713Z,100686.80
2019-05-15T05:10:21.961Z,100683.25
2019-05-15T05:15:38.875Z,100690.33
2019-05-15T05:20:45.151Z,100702.13
2019-05-15T05:26:01.146Z,100694.06
2019-05-15T05:31:19.388Z,100699.27
2019-05-15T05:36:30.982Z,100711.98
2019-05-15T05:41:48.955Z,100710.47
2019-05-15T05:47:05.039Z,100710.70
2019-05-15T05:52:18.563Z,100704.41
2019-05-15T05:57:27.853Z,100711.36
2019-05-15T06:02:48.013Z,100711.36
2019-05-15T06:07:48.798Z,100721.84
2019-05-15T06:13:08.691Z,100729.58
2019-05-15T06:18:19.824Z,100731.98
2019-05-15T06:23:44.026Z,100729.55
2019-05-15T06:28:53.438Z,100735.98
2019-05-15T06:34:03.512Z,100736.16
2019-05-15T06:39:14.194Z,100734.87
2019-05-15T06:44:20.102Z,100735.50
2019-05-15T06:49:25.855Z,100747.34
2019-05-15T06:54:37.879Z,100741.54
2019-05-15T06:59:50.784Z,100752.11
2019-05-15T07:05:02.083Z,100736.46
2019-05-15T07:10:14.970Z,100743.38
2019-05-15T07:15:27.849Z,100751.39
2019-05-15T07:20:41.681Z,100746.02
2019-05-15T07:25:53.691Z,100733.80
2019-05-15T07:31:03.151Z,100748.48
2019-05-15T07:36:14.337Z,100738.66
2019-05-15T07:41:28.477Z,100736.20
2019-05-15T07:46:38.635Z,100735.54
2019-05-15T07:51:59.015Z,100738.20
2019-05-15T07:57:09.967Z,100699.73
2019-05-15T08:02:19.206Z,100728.19
2019-05-15T08:07:32.319Z,100710.26
2019-05-15T08:12:45.206Z,100720.55
2019-05-15T08:18:03.352Z,100716.62
2019-05-15T08:23:08.839Z,100709.94
2019-05-15T08:28:18.980Z,100702.27
2019-05-15T08:33:29.973Z,100697.59
2019-05-15T08:38:38.396Z,100690.31
2019-05-15T08:43:50.417Z,100693.59
2019-05-15T08:48:59.201Z,100686.73
2019-05-15T08:54:09.722Z,100684.02
2019-05-15T08:59:19.484Z,100684.73
2019-05-15T09:04:34.515Z,100683.20
2019-05-15T09:09:38.226Z,100668.58
2019-05-15T09:14:49.387Z,100669.27
2019-05-15T09:20:01.786Z,100661.46
2019-05-15T09:25:08.994Z,100668.75
2019-05-15T09:30:18.292Z,100659.05
2019-05-15T09:35:27.810Z,100655.14
2019-05-15T09:40:45.648Z,100648.27
2019-05-15T09:45:46.063Z,100645.24
2019-05-15T09:50:59.807Z,100659.65
2019-05-15T09:56:12.507Z,100675.53
2019-05-15T10:01:24.532Z,100656.42
2019-05-15T10:06:30.811Z,100655.97
2019-05-15T10:11:41.245Z,100641.88
2019-05-15T10:16:58.222Z,100653.59
2019-05-15T10:22:04.240Z,100658.83
2019-05-15T10:27:18.122Z,100664.52
2019-05-15T10:32:29.151Z,100666.44
2019-05-15T10:37:41.210Z,100657.94
2019-05-15T10:42:51.244Z,100649.88
2019-05-15T10:48:02.937Z,100662.67
2019-05-15T10:53:11.594Z,100663.45
2019-05-15T10:58:22.154Z,100667.23
2019-05-15T11:03:34.849Z,100667.20
2019-05-15T11:08:40.946Z,100675.95
2019-05-15T11:13:48.356Z,100675.95
2019-05-15T11:18:54.898Z,100682.48
2019-05-15T11:24:02.247Z,100676.39
2019-05-15T11:29:10.756Z,100677.87
2019-05-15T11:34:18.637Z,100671.83
2019-05-15T11:39:30.090Z,100663.95
2019-05-15T11:44:38.950Z,100661.63
2019-05-15T11:49:48.634Z,100661.57
2019-05-15T11:55:01.891Z,100668.29
2019-05-15T12:00:17.220Z,100677.83
2019-05-15T12:05:18.265Z,100667.16
2019-05-15T12:10:28.934Z,100656.59
2019-05-15T12:15:34.735Z,100637.27
2019-05-15T12:20:48.644Z,100642.11
2019-05-15T12:25:59.751Z,100643.95
2019-05-15T12:31:09.159Z,100665.57
2019-05-15T12:36:45.356Z,100649.23
2019-05-15T13:02:12.253Z,100666.23
2019-05-15T13:07:19.966Z,100663.13
2019-05-15T13:12:31.663Z,100656.91
2019-05-15T13:17:43.917Z,100653.80
2019-05-15T13:22:53.968Z,100644.55
2019-05-15T13:28:02.590Z,100633.63
2019-05-15T13:33:16.347Z,100634.77
2019-05-15T13:38:25.946Z,100631.70
2019-05-15T13:43:32.600Z,100630.31
2019-05-15T13:48:38.708Z,100633.96
2019-05-15T13:53:45.133Z,100636.55
2019-05-15T13:59:01.803Z,100625.75
2019-05-15T14:04:11.563Z,100621.59
2019-05-15T14:09:25.309Z,100599.94
2019-05-15T14:14:39.505Z,100592.80
2019-05-15T14:19:50.603Z,100597.79
2019-05-15T14:25:04.883Z,100589.30
2019-05-15T14:30:15.050Z,100599.08
2019-05-15T14:35:21.522Z,100601.78
2019-05-15T14:40:36.198Z,100590.20
2019-05-15T14:45:58.704Z,100582.06
2019-05-15T14:51:14.364Z,100568.10
2019-05-15T14:56:27.032Z,100564.33
2019-05-15T15:01:40.621Z,100560.14
2019-05-15T15:06:50.278Z,100537.66
2019-05-15T15:12:02.883Z,100549.02
2019-05-15T15:17:12.220Z,100562.91
2019-05-15T15:22:24.272Z,100556.28
2019-05-15T15:27:30.160Z,100561.75
2019-05-15T15:32:49.069Z,100554.98
2019-05-15T15:38:12.785Z,100551.84
2019-05-15T15:43:22.762Z,100542.02
2019-05-15T15:48:41.793Z,100541.63
2019-05-15T15:53:59.580Z,100540.11
2019-05-15T15:59:21.065Z,100538.45
2019-05-15T16:04:39.201Z,100537.17
2019-05-15T16:09:58.759Z,100533.45
2019-05-15T16:15:18.075Z,100525.20
2019-05-15T16:31:24.891Z,100506.66
2019-05-15T16:36:32.547Z,100499.42
2019-05-15T16:41:44.383Z,100500.31
2019-05-15T16:47:02.714Z,100513.83
2019-05-15T16:52:18.197Z,100501.86
2019-05-15T16:57:34.343Z,100488.93
2019-05-15T17:03:08.632Z,100489.58
2019-05-15T17:08:11.445Z,100471.30
2019-05-15T17:13:31.791Z,100469.22
2019-05-15T17:19:09.295Z,100461.86
2019-05-15T17:24:22.594Z,100460.06
2019-05-15T17:29:48.978Z,100464.78
2019-05-15T17:35:11.159Z,100464.82
2019-05-15T17:40:28.460Z,100458.79
2019-05-15T17:45:48.139Z,100467.01
2019-05-15T17:51:05.051Z,100459.44
2019-05-15T17:56:20.013Z,100441.03
2019-05-15T18:01:32.455Z,100446.47
2019-05-15T18:06:41.593Z,100447.88
2019-05-15T18:11:54.345Z,100454.11
2019-05-15T18:17:10.973Z,100456.86
2019-05-15T18:22:18.081Z,100446.27
2019-05-15T18:27:31.587Z,100426.25
2019-05-15T18:32:39.117Z,100434.31
2019-05-15T18:37:50.024Z,100436.23
2019-05-15T18:43:00.062Z,100427.13
2019-05-15T18:48:14.818Z,100434.86
2019-05-15T18:53:24.530Z,100442.58
2019-05-15T18:58:38.147Z,100439.08
2019-05-15T19:03:48.524Z,100432.88
2019-05-15T19:09:00.652Z,100433.78
2019-05-15T19:14:15.933Z,100428.48
2019-05-15T19:19:31.550Z,100417.72
2019-05-15T19:24:42.034Z,100427.56
2019-05-15T19:29:50.205Z,100425.77
2019-05-15T19:35:01.407Z,100429.98
2019-05-15T19:40:12.224Z,100426.73
2019-05-15T19:45:20.505Z,100420.17
2019-05-15T19:50:32.483Z,100431.91
2019-05-15T19:55:44.145Z,100427.11
2019-05-15T20:00:55.683Z,100416.67
2019-05-15T20:06:08.676Z,100422.28
2019-05-15T20:11:15.445Z,100414.58
2019-05-15T20:16:22.505Z,100413.77
2019-05-15T20:21:33.083Z,100418.42
2019-05-15T20:26:41.373Z,100427.27
2019-05-15T20:31:55.854Z,100425.77
2019-05-15T20:37:02.971Z,100422.44
2019-05-15T20:42:08.940Z,100417.73
2019-05-15T20:47:14.782Z,100413.84
2019-05-15T20:52:28.583Z,100409.37
2019-05-15T20:57:34.282Z,100400.55
2019-05-15T21:02:43.625Z,100397.77
2019-05-15T21:07:55.562Z,100389.31
2019-05-15T21:13:08.224Z,100384.58
2019-05-15T21:18:20.353Z,100380.84
2019-05-15T21:23:28.657Z,100371.95
2019-05-15T21:28:35.383Z,100374.66
2019-05-15T21:33:48.174Z,100356.39
2019-05-15T21:38:58.591Z,100360.39
2019-05-15T21:44:07.957Z,100359.36
2019-05-15T21:49:19.201Z,100359.36
2019-05-15T21:54:24.426Z,100364.59
2019-05-15T21:59:30.253Z,100367.66
2019-05-15T22:04:52.815Z,100366.55
2019-05-15T22:09:51.642Z,100355.18
2019-05-15T22:15:06.797Z,100355.18
2019-05-15T22:20:18.071Z,100354.37
2019-05-15T22:25:28.019Z,100348.73
2019-05-15T22:30:39.730Z,100338.15
2019-05-15T22:35:45.412Z,100328.30
2019-05-15T22:40:56.043Z,100325.84
2019-05-15T22:46:07.818Z,100312.28
2019-05-15T22:51:20.025Z,100309.41
2019-05-15T22:56:26.064Z,100319.85
2019-05-15T23:01:33.403Z,100313.59
2019-05-15T23:06:39.734Z,100310.48
2019-05-15T23:11:54.603Z,100305.47
2019-05-15T23:17:02.226Z,100292.61
2019-05-15T23:22:14.113Z,100292.44
2019-05-15T23:27:21.782Z,100278.09
2019-05-15T23:32:32.985Z,100271.06
2019-05-15T23:37:43.193Z,100267.63
2019-05-15T23:42:52.914Z,100267.63
2019-05-15T23:48:02.882Z,100275.18
2019-05-15T23:53:19.008Z,100271.06
2019-05-15T23:58:29.879Z,100272.28
